createdAt,value
2022-09-22T00:05:44.029Z,90.12
2022-09-22T00:20:44.752Z,90.37
2022-09-22T00:35:46.659Z,92.28
2022-09-22T00:50:47.391Z,91.53
2022-09-22T01:05:49.064Z,90.19
2022-09-22T01:20:49.934Z,90.69
2022-09-22T01:35:53.142Z,91.97
2022-09-22T01:50:54.022Z,90.10
2022-09-22T02:05:54.497Z,89.98
2022-09-22T02:20:55.373Z,89.04
2022-09-22T02:35:55.383Z,87.46
2022-09-22T02:50:56.925Z,88.09
2022-09-22T03:05:58.747Z,86.57
2022-09-22T03:20:58.894Z,86.77
2022-09-22T03:36:00.803Z,84.42
2022-09-22T03:51:01.672Z,86.02
2022-09-22T04:06:03.541Z,86.43
2022-09-22T04:21:03.158Z,86.27
2022-09-22T04:36:05.364Z,87.14
2022-09-22T04:51:06.679Z,85.68
2022-09-22T05:06:08.177Z,84.43
2022-09-22T05:21:08.317Z,83.56
2022-09-22T05:36:09.797Z,82.48
2022-09-22T05:51:10.341Z,86.15
2022-09-22T06:06:11.707Z,87.41
2022-09-22T06:21:13.412Z,84.51
2022-09-22T06:36:15.251Z,75.04
2022-09-22T06:51:16.444Z,98.99
2022-09-22T07:06:20.235Z,99.99
2022-09-22T07:21:21.125Z,99.99
2022-09-22T07:36:21.806Z,98.34
2022-09-22T07:51:23.408Z,97.32
2022-09-22T08:06:25.389Z,95.30
2022-09-22T08:21:26.459Z,94.10
2022-09-22T08:36:29.978Z,87.12
2022-09-22T08:51:31.334Z,79.16
2022-09-22T09:06:36.121Z,74.82
2022-09-22T09:21:37.336Z,70.32
2022-09-22T09:36:39.775Z,67.98
2022-09-22T09:51:42.317Z,65.74
2022-09-22T10:06:43.234Z,60.57
2022-09-22T10:21:43.554Z,57.48
2022-09-22T10:36:44.204Z,57.93
2022-09-22T10:51:45.602Z,55.19
2022-09-22T11:06:46.891Z,54.54
2022-09-22T11:21:48.272Z,54.47
2022-09-22T11:36:52.019Z,56.02
2022-09-22T11:51:52.870Z,58.16
2022-09-22T12:06:54.659Z,60.93
2022-09-22T12:21:54.698Z,60.45
2022-09-22T12:37:10.418Z,57.15
2022-09-22T12:52:11.671Z,54.57
2022-09-22T13:07:13.278Z,52.74
2022-09-22T13:22:15.028Z,51.15
2022-09-22T13:37:16.247Z,51.02
2022-09-22T13:52:17.492Z,53.14
2022-09-22T14:07:20.565Z,55.68
2022-09-22T14:22:20.920Z,56.93
2022-09-22T14:37:21.582Z,54.22
2022-09-22T14:52:21.765Z,57.70
2022-09-22T15:07:22.834Z,57.23
2022-09-22T15:22:22.956Z,64.61
2022-09-22T15:37:23.206Z,70.32
2022-09-22T15:52:23.506Z,66.13
2022-09-22T16:07:25.399Z,69.74
2022-09-22T16:22:25.497Z,74.10
2022-09-22T16:37:27.529Z,78.38
2022-09-22T16:52:29.766Z,84.53
2022-09-22T17:07:31.107Z,91.83
2022-09-22T17:22:31.308Z,96.41
2022-09-22T17:37:33.184Z,99.51
2022-09-22T17:52:36.036Z,99.99
2022-09-22T18:07:37.740Z,99.99
2022-09-22T18:22:37.320Z,99.99
2022-09-22T18:37:38.405Z,99.99
2022-09-22T18:52:39.780Z,99.99
2022-09-22T19:07:43.011Z,99.99
2022-09-22T19:22:44.311Z,99.99
2022-09-22T19:37:46.162Z,99.99
2022-09-22T19:52:45.881Z,99.82
2022-09-22T20:07:47.472Z,99.99
2022-09-22T20:22:48.149Z,99.99
2022-09-22T20:37:50.516Z,99.33
2022-09-22T20:52:53.412Z,99.99
2022-09-22T21:07:53.513Z,98.86
2022-09-22T21:22:55.201Z,98.38
2022-09-22T21:37:55.162Z,96.45
2022-09-22T21:52:57.034Z,97.12
2022-09-22T22:07:59.389Z,96.50
2022-09-22T22:23:00.381Z,96.54
2022-09-22T22:38:01.303Z,97.72
2022-09-22T22:53:01.915Z,95.07
2022-09-22T23:08:03.778Z,94.24
2022-09-22T23:23:04.446Z,93.45
2022-09-22T23:38:09.042Z,92.72
2022-09-22T23:53:09.592Z,92.35
